Terminal Aerodrome Forecast
Issued by NWS

Current Version | Previous Version | Graphics & Text | Print | Product List | Glossary On
Versions: 1 2 3 4 5 6 7 8 9 10 11 12 13 14 15 16 17 18 19 20 21 22 23 24 25 26 27 28 29
000
FTUS41 KILN 161100
TAFLUK
TAF
KLUK 161122Z 1612/1712 14006KT P6SM OVC028
     FM161300 12008KT P6SM VCTS OVC025CB
      TEMPO 1613/1615 5SM -SHRA OVC020
     FM161500 17010KT P6SM VCSH OVC025
     FM162000 19006KT 5SM -SHRA VCTS OVC025CB
     FM170300 VRB03KT 4SM BR OVC012=

USA.gov is the U.S. government's official web portal to all federal, state and local government web resources and services.